Pagina principale
METAR-TAF:

METAR-TAF

Aeroporti :

Tabarka, Tunisia

latitudine: 36-57N, longitudine: 008-45E, altezza: 20 m

Osservazione

Il bollettino è stato emesso 19 minuti fa, alle 01:00 UTC
Vento 4 kt da est
Temperature 16°C
Umidità 82%
Pressione 1017 hPa
Visibilità 10 km o più
Poco nuvoloso ad un'altezza di 2000 ft

METAR: DTKA 150100Z 09004KT 9999 FEW020 16/13 Q1017 NOSIG

Ora: 02:19 (01:19 UTC)

Previsione

Il bollettino è stato emesso 1 ora e 19 minuti fa, alle 00:00 UTC
Previsione valida dal 15 alle 01 UTC al 15 alle 10 UTC
Vento 3 kt da direzioni variabili
Visibilità 10 km o più
Poco nuvoloso ad un'altezza di 2000 ft

TAF: DTKA 150000Z 1501/1510 VRB03KT 9999 FEW020

Osservazioni e previsioni meteorologiche di più di 4000 aeroporti (messaggi METAR e TAF).

Le stazioni disponibili sono rappresentate dai dischi gialli e rossi sulla carta.

Puntare il mouse per vedere il nome della stazione.

Clicca sopra per visualizzare le osservazioni e previsioni meteorologiche.

Per cambiare la mappa : fare clic sui pulsanti verdi con una croce nera per ingrandire, il pulsante verde con un trattino per diminuire, o sulla freccia verde per le mappe adiacenti.


METAR-TAF: